Airfield :
LOGIN :

Register | Disclaimer

   EN    FR    IT 

 










Legend :    VFR   Marginal VFR   IFR   Intensive IFR   Very Intensive IFR
Visi :
Ceiling :
>= 8 km
>= 3000ft
5 to 8 km
1000 to 3000 ft
1500m to 5 km
500 to 1000 ft
800 to 1500m
200 to 500 ft
< 800m
< 200 ft
Symbols :   Thunderstorms  Fog  Heavy snow  Heavy precipitations  Wind > 20 kt
SIGMETs :     Misc.  Thunderstorms  Icing  Turbulence  Mountain Waves  Volcanic Ashes







- Airport Elevation : 1302 ft
- IATA code : GNB
- Download approach charts


LFLS - Grenoble / St. Geoirs

CURRENT METAR :
  • 152100Z AUTO 00000KT 4800 -SN BR BKN049/// OVC058/// ///TCU 01/M02 Q1018

EXPIRED METARs :
  • 152030Z AUTO 25002KT 5000 -SNRA BR BKN066 OVC076 01/M02 Q1018
  • 152000Z AUTO 29002KT 6000 -SNRA FEW058 BKN070 OVC082 01/M02 Q1018 TEMPO 3000 -RA BR
  • 151930Z AUTO VRB02KT 7000 FEW056 BKN070 OVC080 01/M03 Q1018 TEMPO 3000 -RA BR
  • 151900Z AUTO 23002KT 7000 BKN066 BKN076 OVC090 01/M03 Q1018 TEMPO 3000 -RA BR
  • 151830Z AUTO 22003KT 8000 FEW066 BKN076 OVC088 02/M02 Q1018 TEMPO 3000 -RA BR

TAF AMD TAF LFLS
Valid from the 15 at 15:00 until the 16 at 15:00 UTC


151437Z 1515/1615 36005KT 8000 NSC
BECMG 1515/1517 09005KT
PROB30
TEMPO 1517/1519 -SN
TEMPO 1518/1524 3000 -RA BR
BECMG 1522/1524 BKN012
TEMPO 1600/1607 1500 RA BKN006
PROB40
TEMPO 1607/1611 0800 BCFG BKN004
ATIS : +33 4 76 65 55 89
No reported NOTAMs for that airfield.



MET'MAP, your aeronautical weather chart ! - Copyright ORBIFLY December 2007 - Disclaimer

ORBIFLY MET'MAP TEAM :

Programming & Development : Alexandra Zaïnal
Concept & Development : Baudouin d'Aumeries
Co-Development & Prog : Marc-Olivier Méhu
Technical & hardware support : Manuel Goepfert

Contact : metmap@orbifly.com




SOURCES & CREDITS :

   NOAA